Time;durP1;ratioP1;P1;durP2;ratioP2;P2;SDS_P1;SDS_P2;PMS_P1;PMS_P2;Temp;Humidity;BMP_temperature;BMP_pressure;BME280_temperature;BME280_humidity;BME280_pressure;Samples;Min_cycle;Max_cycle;Signal;HPM_P1;HPM_P2
2022/04/27 00:00:24;;;;;;;1999.90;999.90;;;9.80;99.90;;;;;;5075699;28;20453;-67
2022/04/27 00:02:51;;;;;;;1999.90;999.90;;;9.80;99.90;;;;;;5074284;28;20476;-67
2022/04/27 00:05:18;;;;;;;1999.90;999.90;;;9.70;99.90;;;;;;5067858;28;20911;-67
2022/04/27 00:07:44;;;;;;;1999.90;999.90;;;9.80;99.90;;;;;;5068245;28;20457;-68
2022/04/27 00:10:12;;;;;;;1999.90;999.90;;;9.70;99.90;;;;;;5069368;28;20493;-66
2022/04/27 00:12:40;;;;;;;1999.90;999.90;;;9.70;99.90;;;;;;5069915;28;20489;-68
2022/04/27 00:15:08;;;;;;;1999.90;999.90;;;9.70;99.90;;;;;;5065396;28;20489;-70
2022/04/27 00:17:35;;;;;;;1999.90;999.90;;;9.60;99.90;;;;;;5067774;28;20854;-67
2022/04/27 00:20:02;;;;;;;1999.90;999.90;;;9.50;99.90;;;;;;5067665;28;20515;-68
2022/04/27 00:22:29;;;;;;;1999.90;999.90;;;9.40;99.90;;;;;;5067090;28;20492;-69
2022/04/27 00:25:00;;;;;;;1999.90;999.90;;;9.40;99.90;;;;;;5068820;28;20974;-70
2022/04/27 00:27:26;;;;;;;1999.90;999.90;;;9.40;99.90;;;;;;5068151;28;20466;-68
2022/04/27 00:29:55;;;;;;;1999.90;999.90;;;9.40;99.90;;;;;;5068833;28;20510;-68
2022/04/27 00:32:21;;;;;;;1999.90;999.90;;;9.30;99.90;;;;;;5066890;28;20509;-69
2022/04/27 00:34:48;;;;;;;1999.90;999.90;;;9.40;99.90;;;;;;5072969;28;20481;-67
2022/04/27 00:37:15;;;;;;;1999.90;999.90;;;9.30;99.90;;;;;;5065020;28;20530;-67
2022/04/27 00:39:42;;;;;;;1999.90;999.90;;;9.30;99.90;;;;;;5066559;28;20519;-69
2022/04/27 00:42:17;;;;;;;1999.90;999.90;;;9.30;99.90;;;;;;5068877;28;20465;-69
2022/04/27 00:44:45;;;;;;;1999.90;999.90;;;9.30;99.90;;;;;;5065222;28;21008;-68
2022/04/27 00:47:16;;;;;;;1999.90;999.90;;;9.30;99.90;;;;;;5064958;28;20472;-69
2022/04/27 00:49:46;;;;;;;1999.90;999.90;;;9.30;99.90;;;;;;5068224;28;20618;-67
2022/04/27 00:52:14;;;;;;;1999.90;999.90;;;9.30;99.90;;;;;;5066100;28;20870;-68
2022/04/27 00:54:41;;;;;;;1999.90;999.90;;;9.30;99.90;;;;;;5066922;28;20489;-66
2022/04/27 00:57:08;;;;;;;1999.90;999.90;;;9.30;99.90;;;;;;5068910;28;20484;-67
2022/04/27 00:59:35;;;;;;;1999.90;999.90;;;9.30;99.90;;;;;;5067473;28;20453;-67
2022/04/27 01:02:02;;;;;;;1999.90;999.90;;;9.20;99.90;;;;;;5064915;28;20461;-68
2022/04/27 01:04:31;;;;;;;1999.90;999.90;;;9.20;99.90;;;;;;5067831;28;20461;-69
2022/04/27 01:06:57;;;;;;;1999.90;999.90;;;9.20;99.90;;;;;;5066506;28;20519;-69
2022/04/27 01:09:26;;;;;;;1999.90;999.90;;;9.10;99.90;;;;;;5067315;28;20511;-69
2022/04/27 01:11:52;;;;;;;1999.90;999.90;;;8.90;99.90;;;;;;5067995;28;20446;-68
2022/04/27 01:14:19;;;;;;;1999.90;999.90;;;8.80;99.90;;;;;;5066678;28;20562;-68
2022/04/27 01:16:51;;;;;;;1999.90;999.90;;;8.70;99.90;;;;;;5067231;28;20869;-70
2022/04/27 01:19:17;;;;;;;1999.90;999.90;;;8.70;99.90;;;;;;5068157;28;20949;-68
2022/04/27 01:21:45;;;;;;;1999.90;999.90;;;8.70;99.90;;;;;;5066136;28;20491;-68
2022/04/27 01:24:12;;;;;;;1999.90;999.90;;;8.70;99.90;;;;;;5065478;28;20477;-66
2022/04/27 01:26:39;;;;;;;1999.90;999.90;;;8.70;99.90;;;;;;5068321;28;20854;-65
2022/04/27 01:29:06;;;;;;;1999.90;999.90;;;8.70;99.90;;;;;;5065483;28;20993;-68
2022/04/27 01:31:32;;;;;;;1999.90;999.90;;;8.60;99.90;;;;;;5065494;28;20942;-68
2022/04/27 01:33:59;;;;;;;1999.90;999.90;;;8.60;99.90;;;;;;5066518;28;20493;-69
2022/04/27 01:36:26;;;;;;;1999.90;999.90;;;8.60;99.90;;;;;;5066368;28;20534;-68
2022/04/27 01:38:55;;;;;;;1999.90;999.90;;;8.60;99.90;;;;;;5066404;28;20457;-70
2022/04/27 01:41:22;;;;;;;1999.90;999.90;;;8.60;99.90;;;;;;5067330;28;20492;-68
2022/04/27 01:43:48;;;;;;;1999.90;999.90;;;8.60;99.90;;;;;;5066497;28;20488;-68
2022/04/27 01:46:15;;;;;;;1999.90;999.90;;;8.50;99.90;;;;;;5064939;28;20537;-67
2022/04/27 01:48:42;;;;;;;1999.90;999.90;;;8.40;99.90;;;;;;5068616;28;20453;-69
2022/04/27 01:51:09;;;;;;;1999.90;999.90;;;8.40;99.90;;;;;;5070057;28;20487;-68
2022/04/27 01:56:21;;;;;;;1999.90;999.90;;;8.20;99.90;;;;;;5069473;28;20460;-67
2022/04/27 01:58:48;;;;;;;1999.90;999.90;;;8.20;99.90;;;;;;5069268;28;20461;-67
2022/04/27 02:01:15;;;;;;;1999.90;999.90;;;8.10;99.90;;;;;;5068847;28;20469;-65
2022/04/27 02:03:42;;;;;;;1999.90;999.90;;;8.10;99.90;;;;;;5068865;28;20477;-67
2022/04/27 02:06:08;;;;;;;1999.90;999.90;;;8.00;99.90;;;;;;5069634;28;20457;-66
2022/04/27 02:08:35;;;;;;;1999.90;999.90;;;8.00;99.90;;;;;;5069817;28;20449;-66
2022/04/27 02:11:02;;;;;;;1999.90;999.90;;;8.00;99.90;;;;;;5069971;28;20453;-67
2022/04/27 02:13:30;;;;;;;1999.90;999.90;;;8.00;99.90;;;;;;5070930;28;20473;-67
2022/04/27 02:15:57;;;;;;;1999.90;999.90;;;8.00;99.90;;;;;;5069052;28;20473;-66
2022/04/27 02:18:23;;;;;;;1999.90;999.90;;;8.00;99.90;;;;;;5069562;28;20469;-67
2022/04/27 02:20:50;;;;;;;1999.90;999.90;;;8.00;99.90;;;;;;5069797;28;20449;-67
2022/04/27 02:23:20;;;;;;;1999.90;999.90;;;8.00;99.90;;;;;;5068255;28;21048;-66
2022/04/27 02:25:47;;;;;;;1999.90;999.90;;;8.10;99.90;;;;;;5069431;28;20822;-67
2022/04/27 02:28:13;;;;;;;1999.90;999.90;;;8.00;99.90;;;;;;5069251;28;20953;-65
2022/04/27 02:30:41;;;;;;;1999.90;999.90;;;8.00;99.90;;;;;;5069726;28;20478;-67
2022/04/27 02:33:08;;;;;;;1999.90;999.90;;;7.80;99.90;;;;;;5068679;28;20824;-67
2022/04/27 02:35:34;;;;;;;1999.90;999.90;;;7.80;99.90;;;;;;5069302;28;21070;-66
2022/04/27 02:38:01;;;;;;;1999.90;999.90;;;7.80;99.90;;;;;;5068799;28;20756;-66
2022/04/27 02:40:28;;;;;;;1999.90;999.90;;;7.80;99.90;;;;;;5068170;28;20468;-67
2022/04/27 02:42:54;;;;;;;1999.90;999.90;;;7.70;99.90;;;;;;5069842;28;20458;-66
2022/04/27 02:45:21;;;;;;;1999.90;999.90;;;7.60;99.90;;;;;;5068610;28;20471;-66
2022/04/27 02:47:49;;;;;;;1999.90;999.90;;;7.50;99.90;;;;;;5068050;28;20463;-68
2022/04/27 02:53:00;;;;;;;1999.90;999.90;;;7.50;99.90;;;;;;5066367;28;21079;-66
2022/04/27 02:55:27;;;;;;;1999.90;999.90;;;7.50;99.90;;;;;;5070903;28;20531;-66
2022/04/27 02:57:53;;;;;;;1999.90;999.90;;;7.50;99.90;;;;;;5070748;28;20466;-67
2022/04/27 03:00:20;;;;;;;1999.90;999.90;;;7.60;99.90;;;;;;5075605;28;20461;-67
2022/04/27 03:02:46;;;;;;;1999.90;999.90;;;7.60;99.90;;;;;;5071244;28;20699;-66
2022/04/27 03:05:14;;;;;;;1999.90;999.90;;;7.70;99.90;;;;;;5071700;28;20929;-67
2022/04/27 03:07:41;;;;;;;1999.90;999.90;;;7.70;99.90;;;;;;5069048;28;20482;-67
2022/04/27 03:10:09;;;;;;;1999.90;999.90;;;7.70;99.90;;;;;;5074133;28;20511;-62
2022/04/27 03:12:36;;;;;;;1999.90;999.90;;;7.60;99.90;;;;;;5065460;28;21228;-67
2022/04/27 03:15:03;;;;;;;1999.90;999.90;;;7.60;99.90;;;;;;5067377;28;20489;-67
2022/04/27 03:17:29;;;;;;;1999.90;999.90;;;7.60;99.90;;;;;;5068720;28;20453;-66
2022/04/27 03:19:56;;;;;;;1999.90;999.90;;;7.60;99.90;;;;;;5072863;28;20999;-66
2022/04/27 03:22:24;;;;;;;1999.90;999.90;;;7.60;99.90;;;;;;5070511;28;20465;-67
2022/04/27 03:24:51;;;;;;;1999.90;999.90;;;7.60;99.90;;;;;;5075931;28;20534;-67
2022/04/27 03:27:17;;;;;;;1999.90;999.90;;;7.60;99.90;;;;;;5065414;28;20471;-67
2022/04/27 03:29:44;;;;;;;1999.90;999.90;;;7.50;99.90;;;;;;5075812;28;20460;-66
2022/04/27 03:32:11;;;;;;;1999.90;999.90;;;7.50;99.90;;;;;;5063307;28;20433;-67
2022/04/27 03:34:37;;;;;;;1999.90;999.90;;;7.50;99.90;;;;;;5075120;28;20504;-66
2022/04/27 03:37:05;;;;;;;1999.90;999.90;;;7.50;99.90;;;;;;5064594;28;20477;-66
2022/04/27 03:39:33;;;;;;;1999.90;999.90;;;7.30;99.90;;;;;;5069908;28;20449;-68
2022/04/27 03:41:59;;;;;;;1999.90;999.90;;;7.20;99.90;;;;;;5063608;28;20503;-67
2022/04/27 03:44:26;;;;;;;1999.90;999.90;;;7.10;99.90;;;;;;5067792;28;20994;-67
2022/04/27 03:46:52;;;;;;;1999.90;999.90;;;7.00;99.90;;;;;;5067007;28;20457;-66
2022/04/27 03:49:19;;;;;;;1999.90;999.90;;;7.00;99.90;;;;;;5067700;28;20462;-66
2022/04/27 03:51:46;;;;;;;1999.90;999.90;;;7.00;99.90;;;;;;5070670;28;20456;-66
2022/04/27 03:54:12;;;;;;;1999.90;999.90;;;7.00;99.90;;;;;;5077472;28;20481;-67
2022/04/27 03:56:40;;;;;;;1999.90;999.90;;;6.90;99.90;;;;;;5079216;28;20535;-66
2022/04/27 03:59:07;;;;;;;1999.90;999.90;;;6.80;99.90;;;;;;5074986;28;20447;-66
2022/04/27 04:01:34;;;;;;;1999.90;999.90;;;6.80;99.90;;;;;;5073000;28;20506;-66
2022/04/27 04:04:00;;;;;;;1999.90;999.90;;;6.80;99.90;;;;;;5073366;28;20481;-67
2022/04/27 04:06:27;;;;;;;1999.90;999.90;;;6.70;99.90;;;;;;5070493;28;20593;-66
2022/04/27 04:08:54;;;;;;;1999.90;999.90;;;6.70;99.90;;;;;;5061350;28;20438;-66
2022/04/27 04:11:20;;;;;;;1999.90;999.90;;;6.70;99.90;;;;;;5077200;28;20461;-66
2022/04/27 04:13:48;;;;;;;1999.90;999.90;;;6.70;99.90;;;;;;5059893;28;20485;-65
2022/04/27 04:16:15;;;;;;;1999.90;999.90;;;6.70;99.90;;;;;;5063673;28;20528;-66
2022/04/27 04:18:42;;;;;;;1999.90;999.90;;;6.80;99.90;;;;;;5073215;28;20474;-66
2022/04/27 04:21:10;;;;;;;1999.90;999.90;;;6.80;99.90;;;;;;5073738;28;20457;-66
2022/04/27 04:23:36;;;;;;;1999.90;999.90;;;6.80;99.90;;;;;;5092691;28;20535;-65
2022/04/27 04:28:48;;;;;;;1999.90;999.90;;;6.90;99.90;;;;;;5087533;28;20488;-68
2022/04/27 04:31:17;;;;;;;1999.90;999.90;;;7.00;99.90;;;;;;5098811;28;20491;-67
2022/04/27 04:33:44;;;;;;;1999.90;999.90;;;7.00;99.90;;;;;;5082756;28;20503;-67
2022/04/27 04:36:11;;;;;;;1999.90;999.90;;;7.10;99.90;;;;;;5088252;28;20485;-67
2022/04/27 04:38:38;;;;;;;1999.90;999.90;;;7.20;99.90;;;;;;5073022;28;20457;-66
2022/04/27 04:41:05;;;;;;;1999.90;999.90;;;7.20;99.90;;;;;;5072914;28;20970;-67
2022/04/27 04:43:33;;;;;;;1999.90;999.90;;;7.20;99.90;;;;;;5079707;28;20527;-66
2022/04/27 04:46:01;;;;;;;1999.90;999.90;;;7.30;99.90;;;;;;5070442;28;20946;-67
2022/04/27 04:48:27;;;;;;;1999.90;999.90;;;7.30;99.90;;;;;;5072149;28;20488;-66
2022/04/27 04:50:54;;;;;;;1999.90;999.90;;;7.40;99.90;;;;;;5072627;28;20434;-66
2022/04/27 04:53:20;;;;;;;1999.90;999.90;;;7.40;99.90;;;;;;5073433;28;20480;-66
2022/04/27 04:55:47;;;;;;;1999.90;999.90;;;7.40;99.90;;;;;;5076094;28;20480;-67
2022/04/27 04:58:14;;;;;;;1999.90;999.90;;;7.40;99.90;;;;;;5071399;28;20508;-62
2022/04/27 05:00:40;;;;;;;1999.90;999.90;;;7.50;99.90;;;;;;5069368;28;20457;-66
2022/04/27 05:03:08;;;;;;;1999.90;999.90;;;7.50;99.90;;;;;;5064180;28;20481;-67
2022/04/27 05:05:39;;;;;;;1999.90;999.90;;;7.60;99.90;;;;;;5068313;28;20942;-66
2022/04/27 05:08:06;;;;;;;1999.90;999.90;;;7.60;99.90;;;;;;5084650;28;20851;-65
2022/04/27 05:10:33;;;;;;;1999.90;999.90;;;7.60;99.90;;;;;;5068016;28;20484;-66
2022/04/27 05:12:59;;;;;;;1999.90;999.90;;;7.80;99.90;;;;;;5069412;28;20524;-67
2022/04/27 05:15:26;;;;;;;1999.90;999.90;;;7.80;99.90;;;;;;5071713;28;20433;-66
2022/04/27 05:17:53;;;;;;;1999.90;999.90;;;7.90;99.90;;;;;;5071330;28;21004;-67
2022/04/27 05:20:21;;;;;;;1999.90;999.90;;;8.00;99.90;;;;;;5073492;28;20445;-66
2022/04/27 05:22:47;;;;;;;1999.90;999.90;;;8.10;99.90;;;;;;5070824;28;20461;-67
2022/04/27 05:25:14;;;;;;;1999.90;999.90;;;8.10;99.90;;;;;;5073946;28;20508;-67
2022/04/27 05:27:41;;;;;;;1999.90;999.90;;;8.20;99.90;;;;;;5079476;28;20459;-66
2022/04/27 05:32:53;;;;;;;1999.90;999.90;;;8.30;99.90;;;;;;5079669;28;20471;-66
2022/04/27 05:35:21;;;;;;;1999.90;999.90;;;8.40;99.90;;;;;;5074715;28;20481;-66
2022/04/27 05:37:48;;;;;;;1999.90;999.90;;;8.60;99.90;;;;;;5078076;28;20885;-68
2022/04/27 05:40:15;;;;;;;1999.90;999.90;;;8.70;99.90;;;;;;5072530;28;20458;-67
2022/04/27 05:42:42;;;;;;;1999.90;999.90;;;8.80;99.90;;;;;;5077789;28;20461;-67
2022/04/27 05:45:10;;;;;;;1999.90;999.90;;;9.10;99.90;;;;;;5067922;28;20464;-70
2022/04/27 05:47:36;;;;;;;1999.90;999.90;;;9.20;99.90;;;;;;5073106;28;20867;-68
2022/04/27 05:50:04;;;;;;;1999.90;999.90;;;9.30;99.90;;;;;;5080390;28;20553;-69
2022/04/27 05:52:49;;;;;;;1999.90;999.90;;;9.40;99.90;;;;;;5073223;28;20524;-68
2022/04/27 05:55:15;;;;;;;1999.90;999.90;;;9.40;99.90;;;;;;5093448;22;20577;-69
2022/04/27 05:57:42;;;;;;;1999.90;999.90;;;9.40;99.90;;;;;;5074215;28;20480;-67
2022/04/27 06:00:10;;;;;;;1999.90;999.90;;;9.40;99.90;;;;;;5074028;28;20506;-66
2022/04/27 06:02:37;;;;;;;1999.90;999.90;;;9.30;99.90;;;;;;5073501;28;20476;-67
2022/04/27 06:05:04;;;;;;;1999.90;999.90;;;9.30;99.90;;;;;;5074820;28;20587;-68
2022/04/27 06:07:30;;;;;;;1999.90;999.90;;;9.40;99.90;;;;;;5074578;28;20461;-66
2022/04/27 06:09:58;;;;;;;1999.90;999.90;;;9.50;99.90;;;;;;5073809;28;20465;-67
2022/04/27 06:12:31;;;;;;;1999.90;999.90;;;9.50;99.90;;;;;;5074925;28;20449;-67
2022/04/27 06:14:59;;;;;;;1999.90;999.90;;;9.50;99.90;;;;;;5071842;28;20559;-67
2022/04/27 06:17:26;;;;;;;1999.90;999.90;;;9.50;99.90;;;;;;5073481;28;20512;-68
2022/04/27 06:19:52;;;;;;;1999.90;999.90;;;9.60;99.90;;;;;;5073590;28;20454;-68
2022/04/27 06:22:20;;;;;;;1999.90;999.90;;;9.50;99.90;;;;;;5073530;28;20457;-69
2022/04/27 06:24:47;;;;;;;1999.90;999.90;;;9.50;99.90;;;;;;5076675;28;20896;-69
2022/04/27 06:27:15;;;;;;;1999.90;999.90;;;9.70;99.90;;;;;;5065423;28;20502;-67
2022/04/27 06:29:41;;;;;;;1999.90;999.90;;;9.70;99.90;;;;;;5058233;28;20483;-68
2022/04/27 06:32:08;;;;;;;1999.90;999.90;;;9.90;99.90;;;;;;5057688;28;20811;-68
2022/04/27 06:34:35;;;;;;;1999.90;999.90;;;10.20;99.90;;;;;;5056415;28;20511;-68
2022/04/27 06:37:01;;;;;;;1999.90;999.90;;;10.20;99.90;;;;;;5062157;28;20476;-68
2022/04/27 06:39:28;;;;;;;1999.90;999.90;;;10.30;99.90;;;;;;5074294;28;21189;-68
2022/04/27 06:41:54;;;;;;;1999.90;999.90;;;10.40;99.90;;;;;;5074470;28;20441;-67
2022/04/27 06:44:22;;;;;;;1999.90;999.90;;;10.40;99.90;;;;;;5074533;28;20457;-68
2022/04/27 06:46:49;;;;;;;1999.90;999.90;;;10.50;99.90;;;;;;5074827;28;20860;-68
2022/04/27 06:49:16;;;;;;;1999.90;999.90;;;10.40;99.90;;;;;;5076144;28;20519;-68
2022/04/27 06:51:42;;;;;;;1999.90;999.90;;;10.50;99.90;;;;;;5065982;28;20496;-67
2022/04/27 06:54:09;;;;;;;1999.90;999.90;;;10.60;99.90;;;;;;5068004;28;20517;-68
2022/04/27 06:56:35;;;;;;;1999.90;999.90;;;10.70;99.90;;;;;;5078462;28;20531;-68
2022/04/27 06:59:02;;;;;;;1999.90;999.90;;;10.70;99.90;;;;;;5072606;28;20530;-68
2022/04/27 07:01:30;;;;;;;1999.90;999.90;;;11.00;99.90;;;;;;5072095;28;20931;-68
2022/04/27 07:04:01;;;;;;;1999.90;999.90;;;11.20;99.90;;;;;;5070796;28;20466;-70
2022/04/27 07:06:28;;;;;;;1999.90;999.90;;;11.40;99.90;;;;;;5054066;28;20445;-70
2022/04/27 07:08:56;;;;;;;1999.90;999.90;;;11.40;99.90;;;;;;5054007;28;20438;-69
2022/04/27 07:11:22;;;;;;;1999.90;999.90;;;11.40;99.90;;;;;;5068533;28;20449;-70
2022/04/27 07:13:49;;;;;;;1999.90;999.90;;;11.40;99.90;;;;;;5073716;28;20437;-70
2022/04/27 07:16:16;;;;;;;1999.90;999.90;;;11.40;99.90;;;;;;5074332;28;20530;-68
2022/04/27 07:18:44;;;;;;;1999.90;999.90;;;11.60;99.90;;;;;;5074345;28;20528;-68
2022/04/27 07:21:11;;;;;;;1999.90;999.90;;;11.70;99.90;;;;;;5073357;28;20933;-67
2022/04/27 07:23:38;;;;;;;1999.90;999.90;;;11.70;99.90;;;;;;5073724;28;20442;-70
2022/04/27 07:26:06;;;;;;;1999.90;999.90;;;11.80;99.90;;;;;;5073698;28;20433;-70
2022/04/27 07:28:33;;;;;;;1999.90;999.90;;;12.00;99.90;;;;;;5073646;28;21092;-70
2022/04/27 07:31:00;;;;;;;1999.90;999.90;;;12.20;99.90;;;;;;5073705;28;20437;-70
2022/04/27 07:33:26;;;;;;;1999.90;999.90;;;12.30;99.90;;;;;;5073143;28;20446;-70
2022/04/27 07:35:54;;;;;;;1999.90;999.90;;;12.40;99.90;;;;;;5072884;28;20574;-70
2022/04/27 07:38:21;;;;;;;1999.90;999.90;;;12.40;99.90;;;;;;5073786;28;20473;-70
2022/04/27 07:40:47;;;;;;;1999.90;999.90;;;12.50;99.90;;;;;;5073644;28;20487;-70
2022/04/27 07:43:15;;;;;;;1999.90;999.90;;;12.50;99.90;;;;;;5073186;28;20433;-70
2022/04/27 07:45:44;;;;;;;1999.90;999.90;;;12.80;99.90;;;;;;5072741;28;20469;-70
2022/04/27 07:48:10;;;;;;;1999.90;999.90;;;12.80;99.90;;;;;;5073117;28;20433;-70
2022/04/27 07:50:37;;;;;;;1999.90;999.90;;;13.10;99.90;;;;;;5072727;28;20501;-70
2022/04/27 07:53:05;;;;;;;1999.90;999.90;;;13.50;99.90;;;;;;5072826;28;20487;-70
2022/04/27 07:55:32;;;;;;;1999.90;999.90;;;13.60;99.90;;;;;;5072888;28;20469;-70
2022/04/27 07:57:58;;;;;;;1999.90;999.90;;;13.70;99.90;;;;;;5073211;28;20481;-70
2022/04/27 08:00:26;;;;;;;1999.90;999.90;;;13.80;99.90;;;;;;5073234;28;20440;-70
2022/04/27 08:02:53;;;;;;;1999.90;999.90;;;13.70;99.90;;;;;;5072717;28;20437;-70
2022/04/27 08:05:19;;;;;;;1999.90;999.90;;;13.70;99.90;;;;;;5072567;28;20864;-70
2022/04/27 08:07:46;;;;;;;1999.90;999.90;;;14.00;99.90;;;;;;5073069;28;20492;-70
2022/04/27 08:10:16;;;;;;;1999.90;999.90;;;13.70;99.90;;;;;;5073336;28;20503;-70
2022/04/27 08:12:46;;;;;;;1999.90;999.90;;;13.60;99.90;;;;;;5072615;28;20437;-70
2022/04/27 08:15:14;;;;;;;1999.90;999.90;;;13.70;99.90;;;;;;5072633;28;20452;-70
2022/04/27 08:17:54;;;;;;;1999.90;999.90;;;13.70;99.90;;;;;;5072799;28;20531;-70
2022/04/27 08:23:08;;;;;;;1999.90;999.90;;;14.40;99.90;;;;;;5071868;28;20455;-70
2022/04/27 08:25:37;;;;;;;1999.90;999.90;;;14.30;99.90;;;;;;5072539;28;20461;-70
2022/04/27 08:28:06;;;;;;;1999.90;999.90;;;14.10;99.90;;;;;;5072547;28;20532;-69
2022/04/27 08:30:33;;;;;;;1999.90;999.90;;;14.50;99.90;;;;;;5071750;28;20442;-70
2022/04/27 08:33:00;;;;;;;1999.90;999.90;;;14.50;99.90;;;;;;5071613;28;20467;-70
2022/04/27 08:35:27;;;;;;;1999.90;999.90;;;14.40;99.90;;;;;;5071036;28;20501;-70
2022/04/27 08:37:54;;;;;;;1999.90;999.90;;;14.60;99.90;;;;;;5070834;28;20472;-70
2022/04/27 08:40:21;;;;;;;1999.90;999.90;;;14.60;99.90;;;;;;5071958;28;20984;-70
2022/04/27 08:42:49;;;;;;;1999.90;999.90;;;14.40;99.90;;;;;;5071994;28;20445;-70
2022/04/27 08:45:17;;;;;;;1999.90;999.90;;;14.60;99.90;;;;;;5071712;28;20515;-70
2022/04/27 08:47:44;;;;;;;1999.90;999.90;;;14.90;99.90;;;;;;5072301;28;20506;-69
2022/04/27 08:50:14;;;;;;;1999.90;999.90;;;15.20;99.90;;;;;;5072090;28;20442;-68
2022/04/27 08:52:42;;;;;;;1999.90;999.90;;;15.10;99.90;;;;;;5071756;28;21212;-68
2022/04/27 08:55:09;;;;;;;1999.90;999.90;;;15.30;99.40;;;;;;5071952;28;20469;-68
2022/04/27 08:57:37;;;;;;;1999.90;999.90;;;15.20;99.90;;;;;;5071285;28;20485;-68
2022/04/27 09:00:07;;;;;;;1999.90;999.90;;;15.40;99.90;;;;;;5071732;28;21188;-68
2022/04/27 09:02:35;;;;;;;1999.90;999.90;;;15.50;99.90;;;;;;5072064;28;20433;-68
2022/04/27 09:05:10;;;;;;;1999.90;999.90;;;15.30;99.90;;;;;;5072801;28;20481;-69
2022/04/27 09:07:38;;;;;;;1999.90;999.90;;;15.40;99.80;;;;;;5056503;28;20438;-68
2022/04/27 09:10:07;;;;;;;1999.90;999.90;;;15.40;99.90;;;;;;5069124;28;20453;-68
2022/04/27 09:12:34;;;;;;;1999.90;999.90;;;15.60;99.90;;;;;;5074282;28;21008;-68
2022/04/27 09:15:06;;;;;;;1999.90;999.90;;;15.50;99.90;;;;;;5068303;28;20579;-69
2022/04/27 09:23:03;;;;;;;1999.90;999.90;;;15.90;98.20;;;;;;5051238;28;20818;-68
2022/04/27 09:25:34;;;;;;;1999.90;999.90;;;16.10;97.40;;;;;;5070576;28;20477;-69
2022/04/27 09:28:02;;;;;;;1999.90;999.90;;;16.10;97.60;;;;;;5067470;28;20453;-68
2022/04/27 09:30:31;;;;;;;1999.90;999.90;;;16.40;99.50;;;;;;5070584;28;20535;-68
2022/04/27 09:32:58;;;;;;;1999.90;999.90;;;16.40;97.00;;;;;;5071159;28;21130;-69
2022/04/27 09:35:33;;;;;;;1999.90;999.90;;;16.20;97.80;;;;;;5071541;28;20481;-69
2022/04/27 09:38:13;;;;;;;1999.90;999.90;;;16.30;98.10;;;;;;5068663;28;20999;-68
2022/04/27 09:40:47;;;;;;;1999.90;999.90;;;16.50;94.60;;;;;;5075603;28;20433;-69
2022/04/27 09:43:15;;;;;;;1999.90;999.90;;;16.40;95.00;;;;;;5074936;28;20474;-69
2022/04/27 09:45:44;;;;;;;1999.90;999.90;;;16.60;95.40;;;;;;5069721;28;20875;-69
2022/04/27 09:48:18;;;;;;;1999.90;999.90;;;16.60;94.60;;;;;;5073914;28;20495;-69
2022/04/27 09:50:50;;;;;;;1999.90;999.90;;;16.60;95.30;;;;;;5068390;28;20463;-69
2022/04/27 09:53:18;;;;;;;1999.90;999.90;;;16.50;95.00;;;;;;5070374;28;20522;-69
2022/04/27 09:55:47;;;;;;;1999.90;999.90;;;16.20;95.30;;;;;;5069407;28;20473;-69
2022/04/27 09:58:14;;;;;;;1999.90;999.90;;;16.30;95.20;;;;;;5067668;28;20566;-68
2022/04/27 10:00:43;;;;;;;1999.90;999.90;;;16.60;94.90;;;;;;5074184;28;20456;-69
2022/04/27 10:03:14;;;;;;;1999.90;999.90;;;16.60;95.30;;;;;;5063045;28;20520;-70
2022/04/27 10:05:41;;;;;;;1999.90;999.90;;;16.50;94.90;;;;;;5071243;28;20473;-68
2022/04/27 10:08:09;;;;;;;1999.90;999.90;;;17.10;95.10;;;;;;5061109;28;20845;-69
2022/04/27 10:10:37;;;;;;;1999.90;999.90;;;17.60;94.10;;;;;;5076370;28;20842;-69
2022/04/27 10:13:05;;;;;;;1999.90;999.90;;;18.00;93.60;;;;;;5073371;28;20494;-70
2022/04/27 10:15:34;;;;;;;1999.90;999.90;;;18.10;93.60;;;;;;5074166;28;20476;-72
2022/04/27 10:18:02;;;;;;;1999.90;999.90;;;18.10;93.80;;;;;;5074852;28;20523;-71
2022/04/27 10:20:30;;;;;;;1999.90;999.90;;;17.90;93.50;;;;;;5071444;28;20964;-68
2022/04/27 10:23:21;;;;;;;1999.90;999.90;;;17.80;93.70;;;;;;5082801;28;21176;-69
2022/04/27 10:26:08;;;;;;;1999.90;999.90;;;17.50;93.40;;;;;;5074279;28;20517;-70
2022/04/27 10:28:37;;;;;;;1999.90;999.90;;;17.30;93.30;;;;;;5061628;28;20435;-68
2022/04/27 10:31:07;;;;;;;1999.90;999.90;;;16.40;94.50;;;;;;5077248;28;20526;-68
2022/04/27 10:33:42;;;;;;;1999.90;999.90;;;15.90;95.30;;;;;;5059073;28;20880;-68
2022/04/27 10:36:22;;;;;;;1999.90;999.90;;;16.40;94.90;;;;;;5068766;28;20460;-69
2022/04/27 10:39:17;;;;;;;1999.90;999.90;;;16.60;95.60;;;;;;5057097;28;20885;-69
2022/04/27 10:41:50;;;;;;;1999.90;999.90;;;17.00;93.90;;;;;;5074501;28;20461;-69
2022/04/27 10:44:17;;;;;;;1999.90;999.90;;;17.20;94.50;;;;;;5067770;28;21324;-69
2022/04/27 10:46:44;;;;;;;1999.90;999.90;;;17.50;93.70;;;;;;5077393;28;20457;-70
2022/04/27 10:49:25;;;;;;;1999.90;999.90;;;17.70;93.00;;;;;;5066158;28;20938;-69
2022/04/27 10:52:02;;;;;;;1999.90;999.90;;;17.60;92.60;;;;;;5075285;28;20520;-69
2022/04/27 10:54:31;;;;;;;1999.90;999.90;;;17.40;93.90;;;;;;5057079;28;20465;-69
2022/04/27 10:57:41;;;;;;;1999.90;999.90;;;17.60;93.70;;;;;;5075721;28;20445;-69
2022/04/27 11:00:09;;;;;;;1999.90;999.90;;;17.80;94.10;;;;;;5066409;28;20449;-69
2022/04/27 11:02:37;;;;;;;1999.90;999.90;;;17.70;94.20;;;;;;5072488;28;20806;-68
2022/04/27 11:05:20;;;;;;;1999.90;999.90;;;17.40;94.70;;;;;;5081146;28;20532;-69
2022/04/27 11:07:55;;;;;;;1999.90;999.90;;;17.20;95.10;;;;;;5065685;28;20434;-69
2022/04/27 11:10:22;;;;;;;1999.90;999.90;;;17.10;95.60;;;;;;5073329;28;20526;-69
2022/04/27 11:12:50;;;;;;;1999.90;999.90;;;17.30;96.80;;;;;;5064939;28;20435;-71
2022/04/27 11:15:21;;;;;;;1999.90;999.90;;;17.70;96.00;;;;;;5065978;28;20471;-71
2022/04/27 11:17:56;;;;;;;1999.90;999.90;;;17.90;95.60;;;;;;5077287;28;20488;-71
2022/04/27 11:20:26;;;;;;;1999.90;999.90;;;18.20;95.50;;;;;;5072344;28;20449;-72
2022/04/27 11:22:53;;;;;;;1999.90;999.90;;;18.50;94.60;;;;;;5073074;28;20448;-71
2022/04/27 11:25:25;;;;;;;1999.90;999.90;;;18.40;94.00;;;;;;5078692;28;20486;-70
2022/04/27 11:27:51;;;;;;;1999.90;999.90;;;18.20;94.30;;;;;;5085800;28;20456;-72
2022/04/27 11:30:19;;;;;;;1999.90;999.90;;;18.30;93.20;;;;;;5069692;28;20546;-67
2022/04/27 11:32:47;;;;;;;1999.90;999.90;;;17.80;93.50;;;;;;5074417;28;21198;-69
2022/04/27 11:35:14;;;;;;;1999.90;999.90;;;17.40;94.20;;;;;;5068699;28;20986;-69
2022/04/27 11:37:42;;;;;;;1999.90;999.90;;;17.40;94.20;;;;;;5074298;28;20477;-69
2022/04/27 11:40:13;;;;;;;1999.90;999.90;;;17.80;95.00;;;;;;5073219;28;20476;-68
2022/04/27 11:42:44;;;;;;;1999.90;999.90;;;17.60;94.00;;;;;;5079570;28;20467;-68
2022/04/27 11:45:18;;;;;;;1999.90;999.90;;;17.30;94.00;;;;;;5073843;28;20477;-69
2022/04/27 11:47:45;;;;;;;1999.90;999.90;;;17.30;94.50;;;;;;5058163;28;20450;-68
2022/04/27 11:50:12;;;;;;;1999.90;999.90;;;17.70;94.20;;;;;;5072283;28;20457;-69
2022/04/27 11:52:38;;;;;;;1999.90;999.90;;;17.60;94.00;;;;;;5073357;28;20487;-69
2022/04/27 11:55:11;;;;;;;1999.90;999.90;;;17.70;93.80;;;;;;5080628;23;20539;-62
2022/04/27 11:57:38;;;;;;;1999.90;999.90;;;18.30;95.40;;;;;;5065680;28;20527;-64
2022/04/27 12:00:06;;;;;;;1999.90;999.90;;;18.10;95.60;;;;;;5068668;28;20468;-64
2022/04/27 12:02:34;;;;;;;1999.90;999.90;;;18.50;94.00;;;;;;5063978;28;20460;-65
2022/04/27 12:05:01;;;;;;;1999.90;999.90;;;18.50;93.50;;;;;;5072951;28;20926;-66
2022/04/27 12:07:35;;;;;;;1999.90;999.90;;;18.40;93.60;;;;;;5075520;28;20463;-65
2022/04/27 12:10:05;;;;;;;1999.90;999.90;;;18.40;93.50;;;;;;5079301;28;20543;-65
2022/04/27 12:12:34;;;;;;;1999.90;999.90;;;18.20;93.10;;;;;;5071438;28;20492;-65
2022/04/27 12:15:05;;;;;;;1999.90;999.90;;;18.20;93.50;;;;;;5077258;28;20457;-67
2022/04/27 12:17:45;;;;;;;1999.90;999.90;;;18.00;93.70;;;;;;5069925;28;20492;-67
2022/04/27 12:20:26;;;;;;;1999.90;999.90;;;17.80;93.10;;;;;;5072372;28;20448;-68
2022/04/27 12:22:55;;;;;;;1999.90;999.90;;;17.80;94.20;;;;;;5074223;28;20478;-67
2022/04/27 12:25:22;;;;;;;1999.90;999.90;;;17.90;94.10;;;;;;5074925;28;20509;-66
2022/04/27 12:27:53;;;;;;;1999.90;999.90;;;18.30;93.70;;;;;;5053323;28;20866;-67